CW3699 Weather Reports


Display with metric or nautical units.
time (UTC)temp
F
wind
direction
speed
MPH
gust
MPH
rain 1hr
in
rain 24hr
in
rain mn
in
humidity
%
barometer
mb
20200710001910 80 184 0.0 0.0 0.00 0.53 0.53 81 1008.7
20200710001409 80 184 0.0 0.0 0.00 0.53 0.53 78 1008.6
20200710000909 80 184 0.0 0.0 0.00 0.53 0.53 78 1008.5
20200710000410 80 184 0.0 0.0 0.00 0.53 0.53 77 1008.5
20200709235909 80 184 0.0 0.0 0.00 0.53 0.53 78 1008.4
20200709235409 80 184 0.0 0.0 0.00 0.53 0.53 75 1008.4
20200709234909 81 184 0.0 0.0 0.00 0.53 0.53 74 1008.4
20200709234410 81 184 0.0 0.0 0.00 0.53 0.53 74 1008.3
20200709233913 81 184 0.0 0.0 0.00 0.53 0.53 74 1008.3
20200709233410 81 184 0.0 0.0 0.00 0.53 0.53 75 1008.3
20200709232910 81 184 0.0 0.0 0.00 0.53 0.53 72 1008.2
20200709232409 81 184 0.0 1.0 0.00 0.53 0.53 73 1008.1
20200709231909 81 115 0.0 0.0 0.00 0.53 0.53 74 1008.1
20200709231409 81 115 0.0 2.0 0.00 0.53 0.53 74 1008.0
20200709230909 81 22 0.0 1.0 0.00 0.53 0.53 74 1008.1
20200709230410 81 22 0.0 0.0 0.00 0.53 0.53 77 1008.0
20200709225910 81 22 0.0 0.0 0.00 0.53 0.53 75 1008.0
20200709225409 82 22 0.0 0.0 0.00 0.53 0.53 75 1007.9
20200709224909 82 22 0.0 0.0 0.00 0.53 0.53 75 1008.0
20200709224409 82 22 0.0 0.0 0.00 0.53 0.53 73 1008.1
20200709223909 83 22 0.0 0.0 0.00 0.53 0.53 72 1008.1
20200709223409 83 20 0.0 0.0 0.00 0.53 0.53 75 1008.1
20200709222909 84 19 0.0 0.0 0.00 0.53 0.53 74 1008.1
20200709222410 84 19 0.0 0.0 0.00 0.53 0.53 79 1008.2
20200709221910 84 19 0.0 0.0 0.00 0.53 0.53 72 1008.2
20200709221409 84 19 0.0 0.0 0.00 0.53 0.53 71 1008.1
20200709220909 84 19 0.0 0.0 0.00 0.53 0.53 73 1008.3
20200709220409 84 19 0.0 0.0 0.00 0.53 0.53 72 1008.3
20200709215909 84 19 0.0 0.0 0.00 0.53 0.53 73 1008.4
20200709215410 85 19 0.0 0.0 0.00 0.53 0.53 73 1008.6
20200709214909 85 19 0.0 0.0 0.00 0.53 0.53 71 1008.6
20200709214409 86 19 0.0 0.0 0.00 0.53 0.53 70 1008.6
20200709213909 86 19 0.0 0.0 0.00 0.53 0.53 67 1008.8
20200709213410 86 19 0.0 0.0 0.00 0.53 0.53 65 1008.8
20200709212909 87 19 0.0 0.0 0.00 0.53 0.53 59 1008.9
20200709212409 87 19 0.0 0.0 0.00 0.53 0.53 54 1008.8
20200709211909 87 19 0.0 0.0 0.00 0.53 0.53 55 1008.9
20200709211409 87 19 0.0 0.0 0.00 0.53 0.53 56 1009.0
20200709210910 87 19 0.0 0.0 0.00 0.53 0.53 61 1009.0
20200709210410 86 19 0.0 2.0 0.00 0.53 0.53 61 1009.0
20200709205909 85 19 0.0 0.0 0.00 0.53 0.53 64 1009.1
20200709205409 85 19 0.0 1.0 0.00 0.53 0.53 66 1009.1
20200709204909 85 19 0.0 1.0 0.00 0.53 0.53 71 1009.2
20200709204409 85 19 0.0 0.0 0.00 0.53 0.53 68 1009.2
20200709203911 84 19 0.0 0.0 0.00 0.53 0.53 70 1009.2
20200709203410 84 19 0.0 1.0 0.00 0.53 0.53 63 1009.4
20200709202909 84 19 0.0 0.0 0.00 0.53 0.53 69 1009.4
20200709202409 83 19 0.0 0.0 0.00 0.53 0.53 70 1009.4
20200709201909 83 19 0.0 0.0 0.00 0.53 0.53 68 1009.5
20200709201409 83 19 0.0 0.0 0.00 0.53 0.53 75 1009.5
20200709200909 82 19 0.0 0.0 0.00 0.53 0.53 74 1009.4
20200709200409 82 355 0.0 1.0 0.01 0.53 0.53 73 1009.5
20200709195909 81 9 0.0 1.0 0.01 0.53 0.53 79 1009.4
20200709195409 81 304 0.0 0.0 0.03 0.53 0.53 80 1009.5
20200709194909 81 304 0.0 2.0 0.04 0.53 0.53 78 1009.5
20200709194409 80 275 1.0 2.0 0.05 0.53 0.53 77 1009.7
20200709193909 80 275 0.0 2.0 0.07 0.53 0.53 81 1009.7
20200709193409 80 284 0.0 2.0 0.08 0.53 0.53 80 1009.7
20200709192909 80 285 0.0 2.0 0.09 0.53 0.53 81 1009.7
20200709192409 80 275 0.0 0.0 0.10 0.53 0.53 86 1009.8
20200709191909 79 275 0.0 1.0 0.12 0.53 0.53 86 1009.9
20200709191409 79 286 1.0 6.0 0.13 0.53 0.53 88 1010.0
20200709190909 79 286 0.0 0.0 0.15 0.53 0.53 90 1010.1
20200709190409 78 292 0.0 2.0 0.17 0.52 0.52 90 1010.2
20200709185909 78 292 0.0 2.0 0.20 0.52 0.52 92 1010.2
20200709185409 78 272 0.0 0.0 0.21 0.50 0.50 94 1010.1
20200709184909 78 315 0.0 0.0 0.24 0.49 0.49 95 1010.3
20200709184409 78 324 0.0 0.0 0.27 0.48 0.48 96 1010.3
20200709183910 77 316 1.0 3.0 0.31 0.46 0.46 96 1010.2
20200709183410 76 355 0.0 0.0 0.37 0.45 0.45 97 1010.4
20200709182909 76 355 0.0 1.0 0.42 0.44 0.44 96 1010.4
20200709182409 75 355 0.0 1.0 0.43 0.43 0.43 96 1010.6
20200709181910 74 355 0.0 0.0 0.41 0.41 0.41 95 1010.5
20200709181410 74 355 0.0 0.0 0.40 0.40 0.40 95 1010.6
20200709180910 74 355 0.0 2.0 0.38 0.38 0.38 94 1010.7
20200709180409 74 86 1.0 5.0 0.35 0.35 0.35 93 1010.7
20200709175909 74 355 0.0 0.0 0.32 0.32 0.32 92 1011.0
20200709175409 74 355 0.0 1.0 0.29 0.29 0.29 91 1011.2
20200709174909 74 355 0.0 1.0 0.25 0.25 0.25 91 1011.3
20200709174409 75 355 1.0 2.0 0.21 0.21 0.21 89 1010.8
20200709173909 76 261 1.0 3.0 0.15 0.15 0.15 84 1010.4
20200709173409 78 292 5.0 12.0 0.08 0.08 0.08 80 1010.5
20200709172909 80 299 2.0 6.0 0.02 0.02 0.02 76 1010.1
20200709172409 81 12 2.0 3.0 0.00 0.00 0.00 72 1009.9
20200709171909 80 271 1.0 7.0 0.00 0.00 0.00 68 1010.5
20200709171408 81 176 5.0 10.0 0.00 0.00 0.00 68 1010.5
20200709170909 82 11 1.0 5.0 0.00 0.00 0.00 75 1010.6
20200709170409 82 10 2.0 5.0 0.00 0.00 0.00 73 1010.4
20200709165909 83 0 1.0 3.0 0.00 0.00 0.00 75 1010.3
20200709165409 83 346 1.0 2.0 0.00 0.00 0.00 74 1010.2
20200709164909 83 347 1.0 2.0 0.00 0.00 0.00 74 1010.1
20200709164409 84 343 0.0 5.0 0.00 0.00 0.00 72 1010.2
20200709163909 85 339 1.0 2.0 0.00 0.00 0.00 70 1010.2
20200709163409 86 20 2.0 6.0 0.00 0.00 0.00 68 1010.2
20200709162910 87 9 3.0 7.0 0.00 0.00 0.00 64 1009.9
20200709162410 88 93 0.0 5.0 0.00 0.00 0.00 63 1009.9
20200709161909 88 127 0.0 2.0 0.00 0.00 0.00 63 1009.9
20200709161408 88 236 1.0 5.0 0.00 0.00 0.00 62 1009.8
20200709160910 89 78 1.0 2.0 0.00 0.00 0.00 61 1009.8
20200709160409 89 41 1.0 3.0 0.00 0.00 0.00 62 1009.7
20200709155909 88 290 1.0 3.0 0.00 0.00 0.00 63 1009.7
20200709155409 88 86 0.0 0.0 0.00 0.00 0.00 64 1009.6
20200709154909 87 87 0.0 2.0 0.00 0.00 0.00 66 1009.4
20200709154409 88 87 1.0 3.0 0.00 0.00 0.00 63 1009.5
20200709153909 88 87 0.0 1.0 0.00 0.00 0.00 62 1009.4
20200709153408 89 88 0.0 1.0 0.00 0.00 0.00 62 1009.3
20200709152909 89 63 0.0 0.0 0.00 0.00 0.00 61 1009.2
20200709152409 89 63 0.0 2.0 0.00 0.00 0.00 61 1009.1
20200709151909 90 129 1.0 5.0 0.00 0.00 0.00 59 1009.2
20200709151408 90 79 0.0 3.0 0.00 0.00 0.00 62 1009.1
20200709150909 89 145 1.0 5.0 0.00 0.00 0.00 61 1009.0
20200709150409 89 115 1.0 3.0 0.00 0.00 0.00 63 1009.0
20200709145909 88 126 0.0 3.0 0.00 0.00 0.00 64 1009.0
20200709145409 87 127 2.0 5.0 0.00 0.00 0.00 63 1008.8
20200709144909 87 217 1.0 7.0 0.00 0.00 0.00 64 1008.9
20200709144409 87 148 1.0 7.0 0.00 0.00 0.00 67 1008.8
20200709143909 86 187 1.0 3.0 0.00 0.00 0.00 67 1008.9
20200709143409 86 288 0.0 6.0 0.00 0.00 0.00 68 1008.9
20200709142909 85 135 1.0 5.0 0.00 0.00 0.00 68 1009.1
20200709142409 85 240 0.0 1.0 0.00 0.00 0.00 70 1008.9
20200709141909 84 214 0.0 2.0 0.00 0.00 0.00 71 1008.9
20200709141409 84 201 1.0 6.0 0.00 0.00 0.00 70 1009.0
20200709140911 83 153 0.0 3.0 0.00 0.00 0.00 72 1009.0
20200709140409 82 118 1.0 3.0 0.00 0.00 0.00 74 1009.0
20200709135909 82 175 1.0 2.0 0.00 0.00 0.00 73 1009.1
20200709135408 81 127 2.0 7.0 0.00 0.00 0.00 74 1009.3
20200709134909 80 104 1.0 3.0 0.00 0.00 0.00 75 1009.3
20200709134409 80 61 1.0 3.0 0.00 0.00 0.00 76 1009.4
20200709133909 80 132 1.0 3.0 0.00 0.00 0.00 78 1009.5
20200709133409 79 66 1.0 2.0 0.00 0.00 0.00 78 1009.3
20200709132909 78 107 0.0 2.0 0.00 0.00 0.00 79 1009.2
20200709132409 78 106 0.0 2.0 0.00 0.00 0.00 80 1009.1
20200709131909 78 108 0.0 0.0 0.00 0.00 0.00 81 1009.1
20200709131409 77 107 0.0 1.0 0.00 0.00 0.00 82 1009.0
20200709130908 76 101 1.0 2.0 0.00 0.00 0.00 83 1009.2
20200709130409 76 98 0.0 0.0 0.00 0.00 0.00 85 1009.3
20200709125908 75 98 0.0 0.0 0.00 0.00 0.00 84 1009.4
20200709125408 75 98 0.0 0.0 0.00 0.00 0.00 85 1009.4
20200709124909 75 88 0.0 1.0 0.00 0.00 0.00 85 1009.4
20200709124409 75 93 0.0 0.0 0.00 0.00 0.00 85 1009.4
20200709123909 74 93 0.0 0.0 0.00 0.00 0.00 86 1009.5
20200709123409 74 93 0.0 0.0 0.00 0.00 0.00 87 1009.5
20200709122909 74 93 0.0 2.0 0.00 0.00 0.00 87 1009.3
20200709122409 73 101 0.0 2.0 0.00 0.00 0.00 88 1009.4
20200709121908 73 100 0.0 2.0 0.00 0.00 0.00 89 1009.5
20200709121409 72 97 0.0 2.0 0.00 0.00 0.00 89 1009.5
20200709120908 72 91 0.0 0.0 0.00 0.00 0.00 91 1009.6
20200709103909 67 105 0.0 0.0 0.00 0.00 0.00 94 1010.6
20200709103409 67 105 0.0 0.0 0.00 0.00 0.00 94 1010.8
20200709102909 67 105 0.0 0.0 0.00 0.00 0.00 93 1010.7
20200709102409 67 105 0.0 0.0 0.00 0.00 0.00 93 1010.6
20200709101909 67 105 0.0 0.0 0.00 0.00 0.00 93 1010.6
20200709101409 67 105 0.0 0.0 0.00 0.00 0.00 93 1010.4
20200709100910 67 105 0.0 0.0 0.00 0.00 0.00 93 1010.1
20200709100409 67 105 0.0 0.0 0.00 0.00 0.00 93 1010.1
20200709095909 67 105 0.0 0.0 0.00 0.00 0.00 93 1009.9
20200709095409 67 105 0.0 0.0 0.00 0.00 0.00 93 1010.0
20200709094909 67 105 0.0 0.0 0.00 0.00 0.00 93 1010.0
20200709094409 68 105 0.0 0.0 0.00 0.00 0.00 93 1010.0
20200709093909 68 105 0.0 0.0 0.00 0.00 0.00 93 1010.0
20200709093409 68 105 0.0 0.0 0.00 0.00 0.00 93 1010.2
20200709092909 68 105 0.0 0.0 0.00 0.00 0.00 93 1010.3
20200709092409 68 105 0.0 0.0 0.00 0.00 0.00 93 1010.3
20200709091919 68 105 0.0 0.0 0.00 0.00 0.00 92 1010.2
20200709091409 68 105 0.0 0.0 0.00 0.00 0.00 93 1010.2
20200709090909 68 105 0.0 0.0 0.00 0.00 0.00 93 1010.1
20200709090409 68 105 0.0 0.0 0.00 0.00 0.00 93 1010.1
20200709085909 68 105 0.0 0.0 0.00 0.00 0.00 93 1010.3
20200709085409 68 105 0.0 0.0 0.00 0.00 0.00 93 1010.3
20200709084909 68 105 0.0 0.0 0.00 0.00 0.00 93 1010.2
20200709084409 68 105 0.0 0.0 0.00 0.00 0.00 93 1010.3
20200709083909 68 105 0.0 0.0 0.00 0.00 0.00 93 1010.4
20200709083409 68 105 0.0 0.0 0.00 0.00 0.00 93 1010.3
20200709082908 68 105 0.0 0.0 0.00 0.00 0.00 93 1010.4
20200709082409 68 105 0.0 0.0 0.00 0.00 0.00 93 1010.4
20200709081908 68 105 0.0 0.0 0.00 0.00 0.00 92 1010.2
20200709081409 68 105 0.0 0.0 0.00 0.00 0.00 92 1010.1
20200709080909 68 105 0.0 0.0 0.00 0.00 0.00 92 1010.1
20200709080409 68 105 0.0 0.0 0.00 0.00 0.00 92 1010.0
20200709075908 68 105 0.0 0.0 0.00 0.00 0.00 92 1009.9
20200709075409 68 105 0.0 0.0 0.00 0.00 0.00 92 1009.8
20200709074909 68 105 0.0 0.0 0.00 0.00 0.00 92 1009.9
20200709074409 68 105 0.0 0.0 0.00 0.00 0.00 92 1009.7
20200709073909 68 105 0.0 0.0 0.00 0.00 0.00 92 1009.7
20200709073408 68 105 0.0 0.0 0.00 0.00 0.00 92 1009.7
20200709072909 68 105 0.0 0.0 0.00 0.00 0.00 92 1009.6
20200709072409 68 105 0.0 0.0 0.00 0.00 0.00 92 1009.7
20200709071909 68 105 0.0 0.0 0.00 0.00 0.00 92 1009.8
20200709071411 68 105 0.0 0.0 0.00 0.00 0.00 92 1009.9
20200709070909 67 105 0.0 0.0 0.00 0.00 0.00 92 1009.8
20200709070409 67 105 0.0 0.0 0.00 0.00 0.00 92 1009.9
20200709065909 67 105 0.0 0.0 0.00 0.00 0.00 92 1009.9
20200709065409 67 105 0.0 0.0 0.00 0.00 0.00 92 1009.9
20200709064908 67 105 0.0 0.0 0.00 0.00 0.00 92 1009.9
20200709064409 67 105 0.0 0.0 0.00 0.00 0.00 92 1010.0
20200709063909 67 105 0.0 0.0 0.00 0.00 0.00 92 1010.0
20200709063409 67 105 0.0 0.0 0.00 0.00 0.00 92 1010.0
20200709062909 67 105 0.0 0.0 0.00 0.00 0.00 92 1010.0
20200709062409 67 105 0.0 0.0 0.00 0.00 0.00 92 1010.1
20200709061909 67 105 0.0 0.0 0.00 0.00 0.00 93 1010.0
20200709061409 67 105 0.0 0.0 0.00 0.00 0.00 92 1010.0
20200709060909 67 105 0.0 0.0 0.00 0.00 0.00 92 1009.9
20200709060409 67 105 0.0 0.0 0.00 0.00 0.00 92 1009.9
20200709055908 68 105 0.0 0.0 0.00 0.00 0.00 92 1010.1
20200709055409 68 105 0.0 0.0 0.00 0.00 0.00 92 1010.1
20200709054909 68 105 0.0 0.0 0.00 0.00 0.00 92 1010.2
20200709054409 68 105 0.0 0.0 0.00 0.00 0.00 92 1010.1
20200709053909 68 105 0.0 0.0 0.00 0.00 0.00 91 1010.3
20200709053409 68 105 0.0 0.0 0.00 0.00 0.00 91 1010.3
20200709052909 68 105 0.0 0.0 0.00 0.00 0.00 91 1010.4
20200709052409 68 105 0.0 0.0 0.00 0.00 0.00 91 1010.4
20200709051909 68 105 0.0 0.0 0.00 0.00 0.00 91 1010.4
20200709051409 68 105 0.0 0.0 0.00 0.00 0.00 91 1010.3
20200709050909 68 105 0.0 0.0 0.00 0.00 0.00 91 1010.2
20200709050410 68 105 0.0 0.0 0.00 0.00 0.00 91 1010.2
20200709045909 68 105 0.0 0.0 0.00 0.00 0.00 92 1010.2
20200709045409 69 105 0.0 0.0 0.00 0.00 0.00 92 1010.2
20200709044908 69 105 0.0 0.0 0.00 0.00 0.00 92 1010.2
20200709044409 69 105 0.0 0.0 0.00 0.00 0.00 92 1010.3
20200709043909 69 105 0.0 0.0 0.00 0.00 0.00 93 1010.3
20200709043408 69 105 0.0 0.0 0.00 0.00 0.00 93 1010.3
20200709042909 69 105 0.0 0.0 0.00 0.00 0.00 93 1010.2
20200709042408 69 105 0.0 0.0 0.00 0.00 0.00 93 1010.2
20200709041908 69 105 0.0 0.0 0.00 0.00 0.00 92 1010.3
20200709041410 69 105 0.0 0.0 0.00 0.00 0.00 92 1010.3
20200709040908 69 105 0.0 0.0 0.00 0.00 0.00 92 1010.3
20200709040409 69 105 0.0 0.0 0.00 0.00 0.00 92 1010.3
20200709035909 69 105 0.0 0.0 0.00 0.00 0.00 92 1010.2
20200709035409 69 105 0.0 0.0 0.00 0.00 0.00 92 1010.2
20200709034909 69 105 0.0 0.0 0.00 0.00 0.00 92 1010.3
20200709034409 69 105 0.0 0.0 0.00 0.00 0.00 92 1010.4
20200709033909 70 105 0.0 0.0 0.00 0.00 0.00 91 1010.4
20200709033408 70 105 0.0 0.0 0.00 0.00 0.00 91 1010.5
20200709032909 70 105 0.0 0.0 0.00 0.00 0.00 91 1010.6
20200709032409 70 105 0.0 0.0 0.00 0.00 0.00 91 1010.6
20200709031909 70 105 0.0 0.0 0.00 0.00 0.00 91 1010.6
20200709031408 70 105 0.0 0.0 0.00 0.00 0.00 90 1010.6
20200709030909 70 105 0.0 0.0 0.00 0.00 0.00 90 1010.6
20200709030408 70 105 0.0 0.0 0.00 0.00 0.00 90 1010.6
20200709025909 70 105 0.0 0.0 0.00 0.00 0.00 90 1010.7
20200709025409 71 105 0.0 0.0 0.00 0.00 0.00 89 1010.6
20200709024908 71 105 0.0 0.0 0.00 0.00 0.00 89 1010.7
20200709024408 71 105 0.0 0.0 0.00 0.00 0.00 88 1010.7
20200709023909 71 105 0.0 0.0 0.00 0.00 0.00 88 1010.9
20200709023409 71 105 0.0 0.0 0.00 0.00 0.00 88 1010.9
20200709022909 71 105 0.0 0.0 0.00 0.00 0.00 87 1011.0
20200709022409 72 105 0.0 0.0 0.00 0.00 0.00 87 1010.9
20200709021909 72 105 0.0 0.0 0.00 0.00 0.00 87 1011.0
20200709021408 72 105 0.0 0.0 0.00 0.00 0.00 86 1010.9
20200709020909 72 105 0.0 0.0 0.00 0.00 0.00 86 1010.9
20200709020409 73 105 0.0 0.0 0.00 0.00 0.00 85 1010.9
20200709015909 73 105 0.0 0.0 0.00 0.00 0.00 85 1010.9
20200709015408 73 108 0.0 0.0 0.00 0.00 0.00 84 1010.8
20200709014908 73 111 0.0 0.0 0.00 0.00 0.00 84 1010.8
20200709014408 74 126 0.0 0.0 0.00 0.00 0.00 83 1010.6
20200709013909 74 105 0.0 0.0 0.00 0.00 0.00 83 1010.6
20200709013409 74 105 0.0 0.0 0.00 0.00 0.00 83 1010.6
20200709012908 74 105 0.0 0.0 0.00 0.00 0.00 83 1010.5
20200709012408 74 105 0.0 0.0 0.00 0.00 0.00 83 1010.5
20200709011908 74 105 0.0 0.0 0.00 0.00 0.00 83 1010.5
20200709011409 74 105 0.0 0.0 0.00 0.00 0.00 83 1010.5
20200709010909 74 104 0.0 0.0 0.00 0.00 0.00 82 1010.4
20200709010414 74 104 0.0 0.0 0.00 0.00 0.00 82 1010.4
20200709005409 75 104 0.0 0.0 0.00 0.00 0.00 83 1010.4
20200709004410 75 104 0.0 0.0 0.00 0.00 0.00 84 1010.5
20200709003909 75 104 0.0 0.0 0.00 0.00 0.00 84 1010.5
20200709003409 76 104 0.0 0.0 0.00 0.00 0.00 84 1010.6
20200709002908 76 104 0.0 0.0 0.00 0.00 0.00 84 1010.5
20200709002409 76 104 0.0 0.0 0.00 0.00 0.00 84 1010.6